Time;durP1;ratioP1;P1;durP2;ratioP2;P2;SDS_P1;SDS_P2;PMS_P1;PMS_P2;Temp;Humidity;BMP_temperature;BMP_pressure;BME280_temperature;BME280_humidity;BME280_pressure;Samples;Min_cycle;Max_cycle;Signal;HPM_P1;HPM_P2
2023/01/08 00:00:46;;;;;;;4.82;3.30;;;;;;;;;;5086064;28;20041;-77
2023/01/08 00:03:12;;;;;;;5.90;3.45;;;;;;;;;;5052018;28;20191;-77
2023/01/08 00:05:38;;;;;;;6.90;3.75;;;;;;;;;;5051694;28;20406;-78
2023/01/08 00:08:04;;;;;;;5.65;3.55;;;;;;;;;;5052192;28;20116;-77
2023/01/08 00:10:30;;;;;;;5.78;3.55;;;;;;;;;;5052972;28;20045;-78
2023/01/08 00:12:57;;;;;;;7.40;3.92;;;;;;;;;;5051874;28;20489;-77
2023/01/08 00:15:23;;;;;;;6.05;3.60;;;;;;;;;;5051746;28;20048;-77
2023/01/08 00:17:49;;;;;;;6.03;3.03;;;;;;;;;;5052093;28;20478;-78
2023/01/08 00:20:15;;;;;;;6.10;3.40;;;;;;;;;;5051787;28;20478;-78
2023/01/08 00:22:41;;;;;;;6.60;3.78;;;;;;;;;;5051947;28;20037;-77
2023/01/08 00:25:07;;;;;;;6.20;3.90;;;;;;;;;;5051880;28;20116;-78
2023/01/08 00:27:34;;;;;;;8.65;3.72;;;;;;;;;;5051685;28;20079;-77
2023/01/08 00:30:00;;;;;;;4.53;2.90;;;;;;;;;;5034961;28;20045;-77
2023/01/08 00:32:26;;;;;;;5.03;3.38;;;;;;;;;;5053035;28;20060;-77
2023/01/08 00:34:53;;;;;;;6.78;3.22;;;;;;;;;;5051759;28;20102;-78
2023/01/08 00:37:19;;;;;;;4.82;2.95;;;;;;;;;;5035375;28;20508;-77
2023/01/08 00:39:45;;;;;;;6.80;2.83;;;;;;;;;;5051683;28;20041;-77
2023/01/08 00:42:12;;;;;;;4.20;2.60;;;;;;;;;;5052675;28;20108;-77
2023/01/08 00:44:38;;;;;;;5.93;2.60;;;;;;;;;;5051792;28;20048;-77
2023/01/08 00:47:04;;;;;;;6.10;2.63;;;;;;;;;;5052102;28;20048;-78
2023/01/08 00:49:30;;;;;;;5.80;2.63;;;;;;;;;;5051393;28;20394;-77
2023/01/08 00:51:56;;;;;;;5.72;2.83;;;;;;;;;;5051871;28;20370;-78
2023/01/08 00:54:22;;;;;;;5.90;3.00;;;;;;;;;;5051453;28;20044;-77
2023/01/08 00:56:48;;;;;;;7.22;3.38;;;;;;;;;;5034555;28;20052;-77
2023/01/08 00:59:14;;;;;;;7.32;3.45;;;;;;;;;;5020266;28;20046;-77
2023/01/08 01:01:40;;;;;;;7.35;3.22;;;;;;;;;;5051395;28;20052;-77
2023/01/08 01:04:07;;;;;;;6.55;3.53;;;;;;;;;;5037498;28;20506;-77
2023/01/08 01:06:33;;;;;;;8.32;3.50;;;;;;;;;;5050848;28;20049;-78
2023/01/08 01:08:59;;;;;;;6.00;2.90;;;;;;;;;;5051358;28;20505;-77
2023/01/08 01:11:26;;;;;;;6.68;3.03;;;;;;;;;;5051126;28;20048;-77
2023/01/08 01:13:53;;;;;;;6.90;2.67;;;;;;;;;;5051332;28;20386;-77
2023/01/08 01:16:19;;;;;;;5.03;2.65;;;;;;;;;;5050800;28;20037;-77
2023/01/08 01:18:45;;;;;;;7.85;2.70;;;;;;;;;;5050617;28;20037;-77
2023/01/08 01:21:12;;;;;;;6.80;2.15;;;;;;;;;;5051339;28;20048;-78
2023/01/08 01:23:38;;;;;;;7.50;1.88;;;;;;;;;;5050999;28;20093;-77
2023/01/08 01:26:05;;;;;;;6.00;1.70;;;;;;;;;;5050777;28;20087;-77
2023/01/08 01:28:31;;;;;;;3.95;1.73;;;;;;;;;;5055129;28;20036;-77
2023/01/08 01:30:57;;;;;;;5.50;1.40;;;;;;;;;;5061611;28;20386;-78
2023/01/08 01:33:23;;;;;;;6.97;2.15;;;;;;;;;;5051656;28;20045;-77
2023/01/08 01:35:49;;;;;;;8.85;1.65;;;;;;;;;;5050825;28;20040;-77
2023/01/08 01:38:15;;;;;;;7.15;1.50;;;;;;;;;;5050715;28;20071;-78
2023/01/08 01:40:42;;;;;;;4.60;1.85;;;;;;;;;;5050107;28;20175;-78
2023/01/08 01:43:13;;;;;;;9.13;1.80;;;;;;;;;;5050605;28;20076;-77
2023/01/08 01:45:39;;;;;;;9.55;2.03;;;;;;;;;;5050257;28;20045;-77
2023/01/08 01:48:09;;;;;;;8.63;1.42;;;;;;;;;;5051022;28;20555;-77
2023/01/08 01:50:50;;;;;;;10.07;1.70;;;;;;;;;;5050144;28;20123;-77
2023/01/08 01:53:24;;;;;;;6.03;1.48;;;;;;;;;;5058075;28;20056;-77
2023/01/08 01:55:50;;;;;;;7.40;1.88;;;;;;;;;;5070454;28;20119;-77
2023/01/08 01:58:17;;;;;;;8.63;1.60;;;;;;;;;;5053570;28;20053;-77
2023/01/08 02:00:43;;;;;;;6.90;1.85;;;;;;;;;;5063362;28;20044;-77
2023/01/08 02:03:10;;;;;;;9.75;1.63;;;;;;;;;;5070992;28;20136;-77
2023/01/08 02:05:56;;;;;;;10.23;1.40;;;;;;;;;;5070271;28;20076;-77
2023/01/08 02:08:25;;;;;;;8.80;1.65;;;;;;;;;;5053717;28;20513;-77
2023/01/08 02:10:53;;;;;;;9.43;1.63;;;;;;;;;;5070629;28;20102;-77
2023/01/08 02:13:24;;;;;;;11.88;1.60;;;;;;;;;;5070570;28;20513;-78
2023/01/08 02:15:56;;;;;;;10.10;1.70;;;;;;;;;;5071008;28;20447;-77
2023/01/08 02:18:34;;;;;;;9.10;1.50;;;;;;;;;;5070012;28;20040;-77
2023/01/08 02:21:00;;;;;;;8.65;1.50;;;;;;;;;;5070434;28;20032;-77
2023/01/08 02:23:33;;;;;;;9.75;1.80;;;;;;;;;;5070319;28;20558;-77
2023/01/08 02:26:11;;;;;;;10.02;1.60;;;;;;;;;;5070536;28;20036;-77
2023/01/08 02:28:51;;;;;;;10.27;1.60;;;;;;;;;;5070809;28;20497;-77
2023/01/08 02:31:18;;;;;;;7.55;1.70;;;;;;;;;;5065380;28;20040;-77
2023/01/08 02:33:44;;;;;;;10.93;1.80;;;;;;;;;;5048652;28;20112;-77
2023/01/08 02:36:31;;;;;;;10.90;1.95;;;;;;;;;;5074203;28;20037;-77
2023/01/08 02:39:20;;;;;;;8.10;1.60;;;;;;;;;;5075252;28;20462;-77
2023/01/08 02:42:01;;;;;;;9.05;1.80;;;;;;;;;;5057067;28;20048;-78
2023/01/08 02:44:31;;;;;;;7.63;1.60;;;;;;;;;;5072986;28;20043;-77
2023/01/08 02:46:57;;;;;;;14.07;1.90;;;;;;;;;;5073708;28;20094;-77
2023/01/08 02:49:26;;;;;;;6.40;1.63;;;;;;;;;;5075151;28;20037;-77
2023/01/08 02:51:54;;;;;;;6.38;1.52;;;;;;;;;;5074858;28;20560;-77
2023/01/08 02:54:22;;;;;;;7.82;1.60;;;;;;;;;;5073646;28;20044;-77
2023/01/08 02:56:50;;;;;;;8.13;1.60;;;;;;;;;;5073326;28;20551;-77
2023/01/08 02:59:17;;;;;;;9.18;1.65;;;;;;;;;;5059130;28;20394;-77
2023/01/08 03:01:45;;;;;;;8.30;1.55;;;;;;;;;;5064635;28;20116;-78
2023/01/08 03:04:15;;;;;;;3.78;1.42;;;;;;;;;;5099865;28;20037;-77
2023/01/08 03:06:42;;;;;;;6.00;1.77;;;;;;;;;;5072863;28;20650;-77
2023/01/08 03:09:09;;;;;;;7.75;1.80;;;;;;;;;;5075194;28;20063;-78
2023/01/08 03:11:38;;;;;;;9.10;1.90;;;;;;;;;;5073210;28;20420;-78
2023/01/08 03:14:07;;;;;;;9.68;1.95;;;;;;;;;;5073551;28;20403;-77
2023/01/08 03:16:52;;;;;;;5.70;2.10;;;;;;;;;;5072703;28;20045;-77
2023/01/08 03:19:19;;;;;;;8.55;2.00;;;;;;;;;;5073555;28;20119;-78
2023/01/08 03:21:46;;;;;;;6.93;2.53;;;;;;;;;;5072728;28;20170;-78
2023/01/08 03:24:13;;;;;;;7.22;2.30;;;;;;;;;;5073146;28;20044;-77
2023/01/08 03:26:40;;;;;;;10.30;2.45;;;;;;;;;;5058576;28;20036;-77
2023/01/08 03:29:09;;;;;;;10.18;2.42;;;;;;;;;;5073005;28;20528;-78
2023/01/08 03:31:35;;;;;;;7.40;2.42;;;;;;;;;;5074053;28;20110;-77
2023/01/08 03:34:01;;;;;;;9.02;2.53;;;;;;;;;;5074441;28;20112;-77
2023/01/08 03:36:29;;;;;;;7.60;2.42;;;;;;;;;;5072836;28;20056;-77
2023/01/08 03:39:07;;;;;;;5.57;2.47;;;;;;;;;;5072416;28;20040;-78
2023/01/08 03:41:35;;;;;;;5.47;2.55;;;;;;;;;;5071614;28;20090;-77
2023/01/08 03:44:02;;;;;;;7.43;3.00;;;;;;;;;;5058452;28;20040;-78
2023/01/08 03:46:29;;;;;;;7.60;3.00;;;;;;;;;;5062543;28;20506;-78
2023/01/08 03:48:56;;;;;;;9.23;2.70;;;;;;;;;;5069024;28;20056;-78
2023/01/08 03:51:22;;;;;;;7.00;3.42;;;;;;;;;;5072636;28;20036;-77
2023/01/08 03:53:50;;;;;;;8.90;3.53;;;;;;;;;;5072293;28;20048;-78
2023/01/08 03:56:16;;;;;;;10.13;3.65;;;;;;;;;;5072597;28;20186;-78
2023/01/08 03:58:42;;;;;;;9.90;3.65;;;;;;;;;;5058737;28;20052;-78
2023/01/08 04:01:08;;;;;;;7.07;3.42;;;;;;;;;;5072033;28;20045;-78
2023/01/08 04:03:34;;;;;;;8.90;3.38;;;;;;;;;;5072641;28;20421;-78
2023/01/08 04:06:00;;;;;;;6.22;3.75;;;;;;;;;;5072773;28;20036;-77
2023/01/08 04:08:27;;;;;;;5.80;3.80;;;;;;;;;;5054172;28;20396;-78
2023/01/08 04:10:53;;;;;;;10.63;3.92;;;;;;;;;;5047148;28;20041;-78
2023/01/08 04:13:19;;;;;;;7.63;3.85;;;;;;;;;;5054313;28;20126;-78
2023/01/08 04:15:49;;;;;;;7.05;3.35;;;;;;;;;;5061336;28;20047;-78
2023/01/08 04:18:15;;;;;;;5.47;3.22;;;;;;;;;;5057775;28;20052;-77
2023/01/08 04:20:45;;;;;;;7.35;3.17;;;;;;;;;;5063668;28;20045;-78
2023/01/08 04:23:11;;;;;;;8.23;3.13;;;;;;;;;;5065904;28;20048;-78
2023/01/08 04:25:37;;;;;;;6.80;3.35;;;;;;;;;;5058698;28;20054;-78
2023/01/08 04:28:04;;;;;;;7.50;3.42;;;;;;;;;;5071843;28;20404;-78
2023/01/08 04:30:30;;;;;;;7.78;2.95;;;;;;;;;;5058114;28;20072;-78
2023/01/08 04:32:56;;;;;;;7.85;3.10;;;;;;;;;;5060108;28;20041;-77
2023/01/08 04:35:22;;;;;;;6.40;3.17;;;;;;;;;;5051812;28;20040;-77
2023/01/08 04:37:48;;;;;;;7.05;3.10;;;;;;;;;;5060435;28;20037;-77
2023/01/08 04:40:15;;;;;;;7.28;2.63;;;;;;;;;;5071684;28;20043;-77
2023/01/08 04:42:41;;;;;;;6.53;2.65;;;;;;;;;;5071196;28;20063;-78
2023/01/08 04:45:07;;;;;;;8.38;3.20;;;;;;;;;;5058203;28;20127;-78
2023/01/08 04:47:33;;;;;;;5.40;3.05;;;;;;;;;;5071026;28;20052;-78
2023/01/08 04:49:59;;;;;;;7.63;2.67;;;;;;;;;;5054703;28;20040;-78
2023/01/08 04:52:27;;;;;;;7.18;2.50;;;;;;;;;;5054769;28;20106;-78
2023/01/08 04:54:53;;;;;;;6.90;2.60;;;;;;;;;;5071372;28;20497;-77
2023/01/08 04:57:19;;;;;;;5.38;2.38;;;;;;;;;;5071248;28;20394;-77
2023/01/08 04:59:45;;;;;;;6.28;2.42;;;;;;;;;;5054423;28;20124;-78
2023/01/08 05:02:11;;;;;;;4.75;2.10;;;;;;;;;;5058832;28;20041;-78
2023/01/08 05:04:38;;;;;;;5.43;2.13;;;;;;;;;;5053948;28;20041;-78
2023/01/08 05:07:04;;;;;;;5.82;2.05;;;;;;;;;;5070646;28;20055;-77
2023/01/08 05:09:30;;;;;;;5.15;2.25;;;;;;;;;;5054354;28;20136;-77
2023/01/08 05:11:56;;;;;;;8.38;2.30;;;;;;;;;;5064610;28;20041;-77
2023/01/08 05:14:22;;;;;;;4.78;1.80;;;;;;;;;;5063616;28;20487;-77
2023/01/08 05:16:48;;;;;;;8.20;2.65;;;;;;;;;;5070576;28;20405;-77
2023/01/08 05:19:14;;;;;;;6.22;1.80;;;;;;;;;;5071264;28;20045;-77
2023/01/08 05:21:40;;;;;;;7.15;2.30;;;;;;;;;;5054624;28;20037;-77
2023/01/08 05:24:08;;;;;;;5.32;2.10;;;;;;;;;;5072429;28;20366;-77
2023/01/08 05:26:34;;;;;;;5.10;1.88;;;;;;;;;;5070254;28;20055;-78
2023/01/08 05:29:00;;;;;;;7.35;1.80;;;;;;;;;;5050696;28;20048;-78
2023/01/08 05:31:26;;;;;;;6.45;2.25;;;;;;;;;;5050903;28;20116;-77
2023/01/08 05:33:52;;;;;;;5.05;1.80;;;;;;;;;;5053032;28;20040;-77
2023/01/08 05:36:19;;;;;;;7.07;2.33;;;;;;;;;;5071093;28;20501;-77
2023/01/08 05:38:45;;;;;;;9.35;2.78;;;;;;;;;;5070874;28;20047;-78
2023/01/08 05:41:11;;;;;;;6.22;2.30;;;;;;;;;;5070958;28;20119;-78
2023/01/08 05:43:37;;;;;;;6.85;2.88;;;;;;;;;;5052861;28;20047;-78
2023/01/08 05:46:03;;;;;;;6.07;2.97;;;;;;;;;;5041289;28;20488;-78
2023/01/08 05:48:30;;;;;;;7.15;3.00;;;;;;;;;;5070844;28;20041;-77
2023/01/08 05:50:56;;;;;;;10.52;3.40;;;;;;;;;;5071937;28;20055;-78
2023/01/08 05:53:22;;;;;;;8.38;3.80;;;;;;;;;;5070765;28;20043;-78
2023/01/08 05:55:48;;;;;;;7.65;3.80;;;;;;;;;;5053682;28;20072;-78
2023/01/08 05:58:17;;;;;;;6.40;3.70;;;;;;;;;;5070336;28;20053;-78
2023/01/08 06:00:44;;;;;;;9.63;3.63;;;;;;;;;;5070712;28;20063;-77
2023/01/08 06:03:10;;;;;;;7.53;4.00;;;;;;;;;;5070158;28;20133;-78
2023/01/08 06:05:36;;;;;;;9.40;4.15;;;;;;;;;;5074873;28;20520;-77
2023/01/08 06:08:02;;;;;;;10.65;4.15;;;;;;;;;;5073413;28;20120;-77
2023/01/08 06:10:28;;;;;;;9.23;4.20;;;;;;;;;;5055793;28;20478;-78
2023/01/08 06:12:54;;;;;;;8.93;4.10;;;;;;;;;;5068331;28;20134;-77
2023/01/08 06:15:21;;;;;;;7.63;3.63;;;;;;;;;;5074420;28;20055;-77
2023/01/08 06:17:47;;;;;;;8.70;4.15;;;;;;;;;;5074251;28;20076;-78
2023/01/08 06:20:13;;;;;;;8.77;3.92;;;;;;;;;;5069350;28;20055;-77
2023/01/08 06:22:39;;;;;;;9.18;4.20;;;;;;;;;;5065154;28;20083;-78
2023/01/08 06:25:05;;;;;;;11.40;4.43;;;;;;;;;;5073935;28;20090;-77
2023/01/08 06:27:31;;;;;;;7.47;3.70;;;;;;;;;;5074353;28;20036;-77
2023/01/08 06:29:57;;;;;;;9.73;3.70;;;;;;;;;;5074164;28;20512;-77
2023/01/08 06:32:24;;;;;;;10.75;3.83;;;;;;;;;;5074028;28;20045;-78
2023/01/08 06:34:50;;;;;;;9.15;3.60;;;;;;;;;;5044144;28;20056;-78
2023/01/08 06:37:16;;;;;;;7.63;3.78;;;;;;;;;;5068503;28;20044;-78
2023/01/08 06:39:42;;;;;;;7.20;3.25;;;;;;;;;;5074030;28;20037;-78
2023/01/08 06:42:08;;;;;;;10.45;3.72;;;;;;;;;;5073775;28;20154;-78
2023/01/08 06:44:34;;;;;;;10.05;3.40;;;;;;;;;;5057244;28;20146;-77
2023/01/08 06:47:00;;;;;;;11.00;3.17;;;;;;;;;;5073569;28;20044;-77
2023/01/08 06:49:26;;;;;;;7.45;2.70;;;;;;;;;;5073565;28;20089;-77
2023/01/08 06:51:52;;;;;;;10.57;3.13;;;;;;;;;;5057159;28;20120;-77
2023/01/08 06:54:18;;;;;;;8.60;2.63;;;;;;;;;;5073103;28;20078;-77
2023/01/08 06:56:47;;;;;;;6.38;2.80;;;;;;;;;;5073595;28;20041;-77
2023/01/08 06:59:13;;;;;;;6.93;2.60;;;;;;;;;;5073003;28;20058;-77
2023/01/08 07:01:39;;;;;;;9.27;2.63;;;;;;;;;;5067958;28;20045;-77
2023/01/08 07:04:05;;;;;;;6.95;2.35;;;;;;;;;;5066281;28;20041;-77
2023/01/08 07:06:31;;;;;;;7.53;2.60;;;;;;;;;;5074939;28;20043;-77
2023/01/08 07:08:57;;;;;;;7.88;2.92;;;;;;;;;;5064639;28;20037;-77
2023/01/08 07:11:23;;;;;;;7.38;3.00;;;;;;;;;;5067286;28;20098;-77
2023/01/08 07:13:50;;;;;;;8.25;3.50;;;;;;;;;;5053145;28;20116;-77
2023/01/08 07:16:16;;;;;;;7.00;2.70;;;;;;;;;;5015544;28;20144;-78
2023/01/08 07:18:42;;;;;;;12.18;2.83;;;;;;;;;;5045386;28;20421;-77
2023/01/08 07:21:09;;;;;;;7.70;2.47;;;;;;;;;;5060836;28;20037;-77
2023/01/08 07:23:37;;;;;;;7.03;2.67;;;;;;;;;;5057445;28;20093;-77
2023/01/08 07:26:03;;;;;;;8.15;2.35;;;;;;;;;;5062074;28;20045;-78
2023/01/08 07:28:30;;;;;;;8.10;2.13;;;;;;;;;;5069877;28;20489;-77
2023/01/08 07:30:57;;;;;;;9.70;2.53;;;;;;;;;;5073247;28;20040;-79
2023/01/08 07:33:23;;;;;;;9.90;2.10;;;;;;;;;;5056331;28;20037;-79
2023/01/08 07:36:45;;;;;;;8.20;2.00;;;;;;;;;;5073119;28;20048;-79
2023/01/08 07:39:04;;;;;;;10.25;2.20;;;;;;;;;;5059340;28;20040;-78
2023/01/08 07:41:33;;;;;;;7.97;2.40;;;;;;;;;;5073744;28;20044;-78
2023/01/08 07:44:02;;;;;;;10.32;2.35;;;;;;;;;;5074007;28;20033;-77
2023/01/08 07:46:28;;;;;;;8.45;2.15;;;;;;;;;;5062815;28;20037;-78
2023/01/08 07:48:56;;;;;;;5.57;2.08;;;;;;;;;;5039253;28;20041;-78
2023/01/08 07:51:22;;;;;;;8.10;2.10;;;;;;;;;;5072883;28;20404;-79
2023/01/08 07:53:50;;;;;;;8.93;2.03;;;;;;;;;;5057763;28;20076;-78
2023/01/08 07:56:16;;;;;;;9.30;2.92;;;;;;;;;;5059647;28;20044;-78
2023/01/08 07:58:42;;;;;;;11.48;2.47;;;;;;;;;;5055916;28;20454;-77
2023/01/08 08:01:11;;;;;;;8.55;2.17;;;;;;;;;;5055877;28;20055;-78
2023/01/08 08:03:38;;;;;;;8.15;2.03;;;;;;;;;;5073073;28;20056;-78
2023/01/08 08:06:04;;;;;;;7.55;2.30;;;;;;;;;;5057851;28;20068;-78
2023/01/08 08:08:30;;;;;;;6.25;2.10;;;;;;;;;;5044728;28;20123;-78
2023/01/08 08:10:56;;;;;;;8.50;2.45;;;;;;;;;;5072782;28;20036;-78
2023/01/08 08:13:22;;;;;;;12.60;2.58;;;;;;;;;;5071894;28;20574;-78
2023/01/08 08:15:48;;;;;;;10.30;2.22;;;;;;;;;;5072211;28;20033;-77
2023/01/08 08:18:14;;;;;;;9.23;2.40;;;;;;;;;;5105461;28;20090;-77
2023/01/08 08:20:40;;;;;;;10.32;2.45;;;;;;;;;;5072181;28;20036;-77
2023/01/08 08:23:08;;;;;;;10.18;2.47;;;;;;;;;;5071680;28;20070;-78
2023/01/08 08:25:34;;;;;;;8.40;2.78;;;;;;;;;;5071851;28;20051;-78
2023/01/08 08:28:00;;;;;;;7.43;2.20;;;;;;;;;;5059188;28;20076;-78
2023/01/08 08:30:29;;;;;;;5.70;1.98;;;;;;;;;;5069971;28;20098;-77
2023/01/08 08:32:55;;;;;;;9.23;2.20;;;;;;;;;;5071952;28;20161;-77
2023/01/08 08:35:21;;;;;;;5.95;2.00;;;;;;;;;;5070544;28;20043;-77
2023/01/08 08:37:47;;;;;;;8.38;2.00;;;;;;;;;;5071639;28;20048;-78
2023/01/08 08:40:13;;;;;;;8.57;2.30;;;;;;;;;;5070031;28;20413;-78
2023/01/08 08:42:39;;;;;;;6.53;1.95;;;;;;;;;;5058783;28;20044;-79
2023/01/08 08:45:06;;;;;;;7.07;1.80;;;;;;;;;;5071742;28;20049;-78
2023/01/08 08:47:32;;;;;;;5.00;1.70;;;;;;;;;;5055089;28;20048;-80
2023/01/08 08:49:58;;;;;;;6.90;1.80;;;;;;;;;;5071551;28;20114;-79
2023/01/08 08:52:24;;;;;;;6.85;1.83;;;;;;;;;;5072329;28;20028;-76
2023/01/08 08:54:50;;;;;;;10.15;2.55;;;;;;;;;;5071641;28;20067;-76
2023/01/08 08:57:16;;;;;;;6.00;1.60;;;;;;;;;;5071849;28;20064;-76
2023/01/08 08:59:43;;;;;;;6.80;1.88;;;;;;;;;;5051052;28;20036;-76
2023/01/08 09:02:09;;;;;;;4.97;1.60;;;;;;;;;;5070927;28;20058;-77
2023/01/08 09:04:35;;;;;;;6.13;1.55;;;;;;;;;;5055370;28;20072;-77
2023/01/08 09:07:01;;;;;;;6.55;1.45;;;;;;;;;;5059299;28;20045;-76
2023/01/08 09:09:28;;;;;;;5.25;1.98;;;;;;;;;;5072265;28;20044;-76
2023/01/08 09:11:57;;;;;;;5.13;1.42;;;;;;;;;;5071092;28;20036;-77
2023/01/08 09:14:23;;;;;;;6.15;1.40;;;;;;;;;;5054041;28;20032;-77
2023/01/08 09:16:49;;;;;;;6.60;1.60;;;;;;;;;;5070990;28;20036;-77
2023/01/08 09:19:15;;;;;;;5.93;1.45;;;;;;;;;;5071069;28;20596;-76
2023/01/08 09:21:41;;;;;;;5.43;1.70;;;;;;;;;;5056857;28;20496;-77
2023/01/08 09:24:07;;;;;;;6.07;1.20;;;;;;;;;;5072391;28;20123;-76
2023/01/08 09:26:33;;;;;;;5.53;1.85;;;;;;;;;;5070551;28;20051;-76
2023/01/08 09:29:00;;;;;;;7.28;1.58;;;;;;;;;;5071071;28;20124;-77
2023/01/08 09:31:26;;;;;;;3.40;1.25;;;;;;;;;;5070890;28;20053;-77
2023/01/08 09:33:52;;;;;;;4.63;1.30;;;;;;;;;;5072058;28;20098;-77
2023/01/08 09:36:19;;;;;;;5.85;1.40;;;;;;;;;;5070515;28;20124;-76
2023/01/08 09:38:45;;;;;;;5.03;1.50;;;;;;;;;;5071814;28;20071;-77
2023/01/08 09:41:16;;;;;;;9.35;1.63;;;;;;;;;;5075295;28;20366;-77
2023/01/08 09:43:44;;;;;;;5.80;1.50;;;;;;;;;;5075150;28;20037;-77
2023/01/08 09:46:11;;;;;;;9.77;1.92;;;;;;;;;;5075054;28;20037;-77
2023/01/08 09:48:39;;;;;;;7.85;1.52;;;;;;;;;;5074158;28;20041;-77
2023/01/08 09:51:09;;;;;;;11.18;1.80;;;;;;;;;;5044974;28;20090;-78
2023/01/08 09:53:35;;;;;;;5.78;1.58;;;;;;;;;;5074451;28;20098;-77
2023/01/08 09:56:02;;;;;;;7.60;1.60;;;;;;;;;;5074830;28;20036;-77
2023/01/08 09:58:37;;;;;;;8.98;1.73;;;;;;;;;;5062716;28;20045;-77
2023/01/08 10:01:04;;;;;;;10.50;1.85;;;;;;;;;;5073395;28;20045;-77
2023/01/08 10:03:38;;;;;;;3.75;1.27;;;;;;;;;;5075817;28;20029;-77
2023/01/08 10:06:11;;;;;;;10.00;1.77;;;;;;;;;;5074791;28;20047;-77
2023/01/08 10:08:37;;;;;;;7.80;1.50;;;;;;;;;;5081562;28;20132;-77
2023/01/08 10:11:04;;;;;;;6.45;1.20;;;;;;;;;;5074808;28;20076;-79
2023/01/08 10:13:31;;;;;;;8.20;1.55;;;;;;;;;;5074024;28;20046;-77
2023/01/08 10:15:58;;;;;;;6.38;1.40;;;;;;;;;;5046608;28;20049;-77
2023/01/08 10:18:25;;;;;;;7.65;1.25;;;;;;;;;;5055352;28;20203;-77
2023/01/08 10:20:51;;;;;;;7.38;1.45;;;;;;;;;;5074334;28;20037;-77
2023/01/08 10:23:18;;;;;;;7.63;1.63;;;;;;;;;;5074100;28;20055;-77
2023/01/08 10:26:00;;;;;;;8.73;2.03;;;;;;;;;;5074236;28;20123;-77
2023/01/08 10:28:28;;;;;;;6.90;1.52;;;;;;;;;;5074038;28;20055;-77
2023/01/08 10:30:58;;;;;;;7.82;1.30;;;;;;;;;;5074351;28;20037;-77
2023/01/08 10:33:29;;;;;;;7.78;1.60;;;;;;;;;;5073255;28;20071;-77
2023/01/08 10:35:58;;;;;;;8.43;2.10;;;;;;;;;;5057626;28;20508;-77
2023/01/08 10:38:27;;;;;;;6.28;1.55;;;;;;;;;;5073410;28;20497;-77
2023/01/08 10:40:53;;;;;;;7.93;1.80;;;;;;;;;;5057256;28;20048;-77
2023/01/08 10:43:37;;;;;;;5.63;1.50;;;;;;;;;;5075182;28;20036;-77
2023/01/08 10:46:07;;;;;;;8.35;1.70;;;;;;;;;;5048067;28;20090;-77
2023/01/08 10:48:34;;;;;;;9.95;1.60;;;;;;;;;;5073685;28;20044;-77
2023/01/08 10:51:13;;;;;;;7.00;1.90;;;;;;;;;;5076263;28;20119;-77
2023/01/08 10:53:40;;;;;;;7.57;1.70;;;;;;;;;;5073102;28;20115;-77
2023/01/08 10:56:06;;;;;;;7.05;1.67;;;;;;;;;;5073856;28;20109;-77
2023/01/08 10:58:42;;;;;;;7.80;1.50;;;;;;;;;;5073092;28;20053;-77
2023/01/08 11:01:09;;;;;;;9.75;1.55;;;;;;;;;;5057142;28;20441;-77
2023/01/08 11:03:35;;;;;;;9.07;2.22;;;;;;;;;;5065931;28;20497;-77
2023/01/08 11:06:09;;;;;;;7.15;1.70;;;;;;;;;;5067559;28;20501;-77
2023/01/08 11:08:35;;;;;;;9.73;1.90;;;;;;;;;;5073141;28;20051;-77
2023/01/08 11:11:02;;;;;;;12.80;1.95;;;;;;;;;;5073820;28;20044;-76
2023/01/08 11:13:29;;;;;;;9.70;2.00;;;;;;;;;;5057193;28;20127;-77
2023/01/08 11:16:02;;;;;;;10.68;2.25;;;;;;;;;;5073939;28;20033;-77
2023/01/08 11:18:28;;;;;;;9.35;2.33;;;;;;;;;;5056369;28;20045;-77
2023/01/08 11:21:06;;;;;;;6.13;2.10;;;;;;;;;;5073560;28;20063;-76
2023/01/08 11:23:32;;;;;;;7.78;1.73;;;;;;;;;;5073961;28;20110;-77
2023/01/08 11:26:01;;;;;;;10.20;1.92;;;;;;;;;;5073238;28;20048;-76
2023/01/08 11:28:50;;;;;;;10.88;2.17;;;;;;;;;;5058589;28;20044;-77
2023/01/08 11:31:39;;;;;;;6.70;1.75;;;;;;;;;;5068033;28;20428;-77
2023/01/08 11:34:11;;;;;;;6.80;1.77;;;;;;;;;;5067507;28;20056;-76
2023/01/08 11:36:42;;;;;;;11.60;2.25;;;;;;;;;;5072732;28;20048;-78
2023/01/08 11:39:08;;;;;;;8.60;2.00;;;;;;;;;;5056196;28;20036;-77
2023/01/08 11:41:53;;;;;;;14.27;2.42;;;;;;;;;;5073330;28;20051;-77
2023/01/08 11:44:33;;;;;;;8.63;1.92;;;;;;;;;;5080702;28;20041;-78
2023/01/08 11:47:02;;;;;;;7.95;2.00;;;;;;;;;;5072973;28;20040;-78
2023/01/08 11:49:57;;;;;;;9.73;2.25;;;;;;;;;;5073629;28;20036;-77
2023/01/08 11:52:37;;;;;;;11.27;2.40;;;;;;;;;;5072637;28;20037;-77
2023/01/08 11:55:03;;;;;;;8.75;2.42;;;;;;;;;;5072650;28;20037;-77
2023/01/08 11:57:48;;;;;;;8.45;2.25;;;;;;;;;;5068515;28;20040;-76
2023/01/08 12:00:17;;;;;;;10.98;2.58;;;;;;;;;;5052961;28;20490;-77
2023/01/08 12:02:52;;;;;;;11.60;2.72;;;;;;;;;;5049124;28;20495;-77
2023/01/08 12:05:33;;;;;;;11.38;2.30;;;;;;;;;;5060002;28;20059;-78
2023/01/08 12:08:01;;;;;;;10.68;2.50;;;;;;;;;;5072599;28;20040;-78
2023/01/08 12:10:46;;;;;;;12.07;2.58;;;;;;;;;;5072782;28;20051;-78
2023/01/08 12:13:36;;;;;;;12.95;2.20;;;;;;;;;;5073159;28;20049;-78
2023/01/08 12:16:23;;;;;;;10.43;2.08;;;;;;;;;;5044144;28;20045;-78
2023/01/08 12:19:01;;;;;;;10.02;2.20;;;;;;;;;;5040294;28;20079;-78
2023/01/08 12:21:27;;;;;;;10.95;2.15;;;;;;;;;;5053867;28;20045;-78
2023/01/08 12:24:09;;;;;;;10.00;2.17;;;;;;;;;;5073412;28;20107;-78
2023/01/08 12:26:42;;;;;;;9.82;2.58;;;;;;;;;;5057621;28;20048;-78
2023/01/08 12:29:14;;;;;;;9.40;2.08;;;;;;;;;;5071916;28;20036;-78
2023/01/08 12:31:40;;;;;;;7.07;2.10;;;;;;;;;;5071855;28;20071;-77
2023/01/08 12:34:15;;;;;;;14.55;3.00;;;;;;;;;;5071762;28;20032;-77
2023/01/08 12:36:50;;;;;;;8.60;2.35;;;;;;;;;;5072714;28;20436;-77
2023/01/08 12:39:22;;;;;;;14.65;2.97;;;;;;;;;;5071830;28;20036;-77
2023/01/08 12:41:49;;;;;;;11.43;2.42;;;;;;;;;;5071616;28;20543;-77
2023/01/08 12:44:21;;;;;;;12.30;2.53;;;;;;;;;;5071556;28;20045;-77
2023/01/08 12:46:48;;;;;;;9.25;2.13;;;;;;;;;;5041502;28;20073;-78
2023/01/08 12:49:20;;;;;;;10.90;1.70;;;;;;;;;;5071107;28;20071;-77
2023/01/08 12:51:55;;;;;;;9.98;1.83;;;;;;;;;;5071330;28;20123;-77
2023/01/08 12:54:28;;;;;;;12.98;2.10;;;;;;;;;;5071498;28;20036;-77
2023/01/08 12:57:06;;;;;;;9.25;2.20;;;;;;;;;;5058342;28;20049;-77
2023/01/08 12:59:41;;;;;;;8.90;2.20;;;;;;;;;;5039777;28;20060;-77
2023/01/08 13:02:15;;;;;;;5.90;1.80;;;;;;;;;;5071528;28;20040;-77
2023/01/08 13:04:46;;;;;;;6.40;1.70;;;;;;;;;;5054305;28;20539;-77
2023/01/08 13:07:16;;;;;;;7.38;1.63;;;;;;;;;;5062634;28;20405;-78
2023/01/08 13:09:42;;;;;;;9.95;2.00;;;;;;;;;;5053348;28;20052;-78
2023/01/08 13:12:12;;;;;;;7.45;1.70;;;;;;;;;;5071397;28;20091;-77
2023/01/08 13:14:47;;;;;;;7.55;1.35;;;;;;;;;;5056706;28;20045;-77
2023/01/08 13:17:16;;;;;;;11.70;2.47;;;;;;;;;;5071358;28;20071;-77
2023/01/08 13:19:44;;;;;;;9.25;1.70;;;;;;;;;;5071960;28;20036;-77
2023/01/08 13:22:22;;;;;;;8.75;1.80;;;;;;;;;;5071338;28;20496;-77
2023/01/08 13:24:49;;;;;;;7.53;1.90;;;;;;;;;;5056823;28;20041;-77
2023/01/08 13:27:18;;;;;;;5.55;1.42;;;;;;;;;;5071202;28;20044;-77
2023/01/08 13:29:45;;;;;;;9.07;1.70;;;;;;;;;;5070986;28;20119;-77
2023/01/08 13:32:24;;;;;;;10.98;2.10;;;;;;;;;;5057007;28;20397;-77
2023/01/08 13:35:09;;;;;;;11.15;2.00;;;;;;;;;;5053729;28;20040;-77
2023/01/08 13:37:35;;;;;;;6.53;1.45;;;;;;;;;;5046148;28;20029;-77
2023/01/08 13:40:05;;;;;;;8.60;1.83;;;;;;;;;;5040677;28;20053;-78
2023/01/08 13:42:36;;;;;;;7.13;1.70;;;;;;;;;;5037116;28;20060;-77
2023/01/08 13:45:03;;;;;;;11.60;1.90;;;;;;;;;;5063345;28;20040;-77
2023/01/08 13:47:34;;;;;;;7.05;1.60;;;;;;;;;;5054580;28;20374;-77
2023/01/08 13:50:03;;;;;;;5.30;1.38;;;;;;;;;;5070702;28;20044;-77
2023/01/08 13:52:38;;;;;;;5.95;1.63;;;;;;;;;;5056658;28;20111;-77
2023/01/08 13:55:05;;;;;;;8.00;1.97;;;;;;;;;;5070734;28;20041;-78
2023/01/08 13:57:37;;;;;;;6.40;1.50;;;;;;;;;;5070238;28;20319;-77
2023/01/08 14:00:04;;;;;;;5.53;1.50;;;;;;;;;;5070738;28;20044;-77
2023/01/08 14:02:31;;;;;;;7.55;1.95;;;;;;;;;;5072424;28;20036;-77
2023/01/08 14:04:59;;;;;;;7.28;1.42;;;;;;;;;;5070418;28;20032;-77
2023/01/08 14:07:25;;;;;;;7.30;1.75;;;;;;;;;;5070753;28;20048;-77
2023/01/08 14:09:51;;;;;;;7.38;1.63;;;;;;;;;;5050291;28;20052;-77
2023/01/08 14:12:20;;;;;;;7.15;1.40;;;;;;;;;;5059714;28;20052;-77
2023/01/08 14:14:53;;;;;;;6.43;2.20;;;;;;;;;;5070176;28;20056;-77
2023/01/08 14:17:21;;;;;;;7.32;1.80;;;;;;;;;;5070648;28;20080;-77
2023/01/08 14:19:47;;;;;;;9.15;1.63;;;;;;;;;;5057435;28;20041;-77
2023/01/08 14:22:17;;;;;;;8.88;1.45;;;;;;;;;;5054132;28;20077;-77
2023/01/08 14:24:44;;;;;;;7.60;1.85;;;;;;;;;;5058264;28;20049;-78
2023/01/08 14:27:19;;;;;;;6.10;1.63;;;;;;;;;;5090640;28;20050;-78
2023/01/08 14:29:45;;;;;;;4.47;1.77;;;;;;;;;;5074553;28;20050;-78
2023/01/08 14:32:15;;;;;;;5.80;1.90;;;;;;;;;;5074658;28;20397;-78
2023/01/08 14:34:42;;;;;;;5.18;1.40;;;;;;;;;;5074451;28;20076;-77
2023/01/08 14:37:12;;;;;;;3.70;1.30;;;;;;;;;;5060849;28;20038;-77
2023/01/08 14:39:38;;;;;;;6.22;1.88;;;;;;;;;;5074347;28;20567;-78
2023/01/08 14:44:56;;;;;;;7.85;2.10;;;;;;;;;;5062310;28;20052;-78
2023/01/08 14:47:24;;;;;;;7.53;3.78;;;;;;;;;;5071755;28;20052;-78
2023/01/08 14:49:52;;;;;;;6.22;1.80;;;;;;;;;;5073495;28;20044;-78
2023/01/08 14:52:20;;;;;;;5.28;2.53;;;;;;;;;;5105309;28;20428;-78